sensor_id;sensor_type;location;lat;lon;timestamp;temperature;humidity
70076;DHT22;63241;51.056;3.698;2023-08-17T00:05:09;18.80;99.90
70076;DHT22;63241;51.056;3.698;2023-08-17T00:07:55;18.80;99.90
70076;DHT22;63241;51.056;3.698;2023-08-17T00:10:41;18.80;99.90
70076;DHT22;63241;51.056;3.698;2023-08-17T09:23:28;44.50;25.90
70076;DHT22;63241;51.056;3.698;2023-08-17T09:26:22;45.30;25.70
70076;DHT22;63241;51.056;3.698;2023-08-17T09:29:29;47.00;24.40
70076;DHT22;63241;51.056;3.698;2023-08-17T09:32:19;46.70;23.50
70076;DHT22;63241;51.056;3.698;2023-08-17T09:35:06;43.60;26.20
70076;DHT22;63241;51.056;3.698;2023-08-17T09:37:52;42.70;28.20
70076;DHT22;63241;51.056;3.698;2023-08-17T09:40:56;42.90;27.30
70076;DHT22;63241;51.056;3.698;2023-08-17T09:44:06;42.00;27.60
70076;DHT22;63241;51.056;3.698;2023-08-17T09:46:56;41.30;28.80
70076;DHT22;63241;51.056;3.698;2023-08-17T09:49:48;40.80;29.10
70076;DHT22;63241;51.056;3.698;2023-08-17T09:52:38;40.00;29.90
70076;DHT22;63241;51.056;3.698;2023-08-17T09:58:59;40.40;30.20
70076;DHT22;63241;51.056;3.698;2023-08-17T10:01:47;40.40;30.00
70076;DHT22;63241;51.056;3.698;2023-08-17T10:04:35;40.40;30.00
70076;DHT22;63241;51.056;3.698;2023-08-17T10:07:29;40.20;30.50
70076;DHT22;63241;51.056;3.698;2023-08-17T10:10:28;40.40;30.20
70076;DHT22;63241;51.056;3.698;2023-08-17T10:13:21;41.80;29.20
70076;DHT22;63241;51.056;3.698;2023-08-17T10:16:09;44.00;27.60
70076;DHT22;63241;51.056;3.698;2023-08-17T10:25:30;42.00;28.00
70076;DHT22;63241;51.056;3.698;2023-08-17T10:28:17;40.50;29.80
70076;DHT22;63241;51.056;3.698;2023-08-17T10:31:04;39.00;31.60
70076;DHT22;63241;51.056;3.698;2023-08-17T10:33:50;37.70;33.60
70076;DHT22;63241;51.056;3.698;2023-08-17T10:36:38;36.80;35.00
70076;DHT22;63241;51.056;3.698;2023-08-17T10:39:29;36.60;36.00
70076;DHT22;63241;51.056;3.698;2023-08-17T10:42:15;37.10;35.00
70076;DHT22;63241;51.056;3.698;2023-08-17T10:45:33;37.80;34.00
70076;DHT22;63241;51.056;3.698;2023-08-17T10:48:27;37.60;33.90
70076;DHT22;63241;51.056;3.698;2023-08-17T10:51:14;36.90;35.40
70076;DHT22;63241;51.056;3.698;2023-08-17T10:54:03;36.30;36.40
70076;DHT22;63241;51.056;3.698;2023-08-17T10:56:49;35.20;38.10
70076;DHT22;63241;51.056;3.698;2023-08-17T10:59:35;34.90;39.20
70076;DHT22;63241;51.056;3.698;2023-08-17T11:02:22;35.00;39.50
70076;DHT22;63241;51.056;3.698;2023-08-17T11:05:10;34.90;38.80
70076;DHT22;63241;51.056;3.698;2023-08-17T11:07:58;34.10;39.30
70076;DHT22;63241;51.056;3.698;2023-08-17T11:10:56;33.10;41.60
70076;DHT22;63241;51.056;3.698;2023-08-17T11:13:44;32.50;42.90
70076;DHT22;63241;51.056;3.698;2023-08-17T11:16:25;31.70;44.80
70076;DHT22;63241;51.056;3.698;2023-08-17T11:19:11;31.30;45.60
70076;DHT22;63241;51.056;3.698;2023-08-17T11:21:58;31.10;46.50
70076;DHT22;63241;51.056;3.698;2023-08-17T11:24:47;31.30;46.70
70076;DHT22;63241;51.056;3.698;2023-08-17T11:27:34;31.40;46.60
70076;DHT22;63241;51.056;3.698;2023-08-17T11:30:21;31.60;46.30
70076;DHT22;63241;51.056;3.698;2023-08-17T11:33:11;32.00;45.40
70076;DHT22;63241;51.056;3.698;2023-08-17T11:54:32;30.90;47.00
70076;DHT22;63241;51.056;3.698;2023-08-17T11:57:20;30.10;48.80
70076;DHT22;63241;51.056;3.698;2023-08-17T12:00:08;29.60;49.80
70076;DHT22;63241;51.056;3.698;2023-08-17T12:02:55;29.70;50.30
70076;DHT22;63241;51.056;3.698;2023-08-17T12:05:41;29.50;50.10
70076;DHT22;63241;51.056;3.698;2023-08-17T12:08:27;29.30;50.90
70076;DHT22;63241;51.056;3.698;2023-08-17T12:11:15;29.00;51.80
70076;DHT22;63241;51.056;3.698;2023-08-17T12:14:10;28.70;52.20
70076;DHT22;63241;51.056;3.698;2023-08-17T12:16:57;28.60;52.50
70076;DHT22;63241;51.056;3.698;2023-08-17T12:19:44;28.60;52.40
70076;DHT22;63241;51.056;3.698;2023-08-17T12:22:32;28.70;52.40
70076;DHT22;63241;51.056;3.698;2023-08-17T12:25:23;28.50;52.30
70076;DHT22;63241;51.056;3.698;2023-08-17T12:31:07;28.40;53.20
70076;DHT22;63241;51.056;3.698;2023-08-17T12:33:53;28.40;53.20
70076;DHT22;63241;51.056;3.698;2023-08-17T12:36:42;28.20;53.50
70076;DHT22;63241;51.056;3.698;2023-08-17T12:39:29;28.10;53.50
70076;DHT22;63241;51.056;3.698;2023-08-17T12:42:15;28.10;53.90
70076;DHT22;63241;51.056;3.698;2023-08-17T12:45:03;27.90;54.20
70076;DHT22;63241;51.056;3.698;2023-08-17T12:47:50;27.70;55.40
70076;DHT22;63241;51.056;3.698;2023-08-17T12:50:36;27.70;55.00
70076;DHT22;63241;51.056;3.698;2023-08-17T12:53:23;27.50;55.40
70076;DHT22;63241;51.056;3.698;2023-08-17T12:56:09;27.60;55.70
70076;DHT22;63241;51.056;3.698;2023-08-17T12:58:56;27.70;55.70
70076;DHT22;63241;51.056;3.698;2023-08-17T13:01:42;27.60;55.30
70076;DHT22;63241;51.056;3.698;2023-08-17T13:07:16;27.40;56.10
70076;DHT22;63241;51.056;3.698;2023-08-17T13:10:02;27.30;56.30
70076;DHT22;63241;51.056;3.698;2023-08-17T13:12:49;27.30;56.10
70076;DHT22;63241;51.056;3.698;2023-08-17T13:15:37;27.50;56.10
70076;DHT22;63241;51.056;3.698;2023-08-17T13:29:20;27.30;56.80
70076;DHT22;63241;51.056;3.698;2023-08-17T13:53:05;27.00;57.50
70076;DHT22;63241;51.056;3.698;2023-08-17T13:55:51;27.20;57.70
70076;DHT22;63241;51.056;3.698;2023-08-17T13:58:37;27.40;57.80
70076;DHT22;63241;51.056;3.698;2023-08-17T14:01:24;27.50;57.50
70076;DHT22;63241;51.056;3.698;2023-08-17T14:04:10;27.60;56.60
70076;DHT22;63241;51.056;3.698;2023-08-17T14:06:57;27.50;57.20
70076;DHT22;63241;51.056;3.698;2023-08-17T14:09:43;27.60;56.80
70076;DHT22;63241;51.056;3.698;2023-08-17T14:12:29;27.70;56.50
70076;DHT22;63241;51.056;3.698;2023-08-17T14:15:16;27.70;56.50
70076;DHT22;63241;51.056;3.698;2023-08-17T14:18:02;27.50;56.50
70076;DHT22;63241;51.056;3.698;2023-08-17T14:20:48;27.60;57.20
70076;DHT22;63241;51.056;3.698;2023-08-17T14:23:34;27.70;57.20
70076;DHT22;63241;51.056;3.698;2023-08-17T14:26:21;27.80;56.80
70076;DHT22;63241;51.056;3.698;2023-08-17T14:29:08;28.10;56.30
70076;DHT22;63241;51.056;3.698;2023-08-17T14:31:54;27.90;56.20
70076;DHT22;63241;51.056;3.698;2023-08-17T14:34:40;27.60;57.10
70076;DHT22;63241;51.056;3.698;2023-08-17T14:37:26;27.60;57.20
70076;DHT22;63241;51.056;3.698;2023-08-17T14:40:12;27.40;57.20
70076;DHT22;63241;51.056;3.698;2023-08-17T14:42:59;27.20;58.30
70076;DHT22;63241;51.056;3.698;2023-08-17T14:45:45;27.00;58.80
70076;DHT22;63241;51.056;3.698;2023-08-17T14:48:31;27.00;59.00
70076;DHT22;63241;51.056;3.698;2023-08-17T14:51:18;27.00;59.30
70076;DHT22;63241;51.056;3.698;2023-08-17T14:54:05;26.90;59.40
70076;DHT22;63241;51.056;3.698;2023-08-17T14:56:52;27.40;58.50
70076;DHT22;63241;51.056;3.698;2023-08-17T14:59:55;27.40;57.50
70076;DHT22;63241;51.056;3.698;2023-08-17T15:02:42;27.20;58.10
70076;DHT22;63241;51.056;3.698;2023-08-17T15:05:28;27.40;58.50
70076;DHT22;63241;51.056;3.698;2023-08-17T15:08:16;27.30;58.10
70076;DHT22;63241;51.056;3.698;2023-08-17T15:11:15;27.10;58.50
70076;DHT22;63241;51.056;3.698;2023-08-17T15:14:12;26.80;59.60
70076;DHT22;63241;51.056;3.698;2023-08-17T15:16:58;26.60;59.90
70076;DHT22;63241;51.056;3.698;2023-08-17T15:19:44;26.80;60.10
70076;DHT22;63241;51.056;3.698;2023-08-17T15:22:30;27.20;59.50
70076;DHT22;63241;51.056;3.698;2023-08-17T15:25:28;27.50;58.40
70076;DHT22;63241;51.056;3.698;2023-08-17T15:28:21;27.20;58.60
70076;DHT22;63241;51.056;3.698;2023-08-17T15:31:07;27.10;59.00
70076;DHT22;63241;51.056;3.698;2023-08-17T15:33:57;27.40;58.60
70076;DHT22;63241;51.056;3.698;2023-08-17T15:42:17;27.70;57.60
70076;DHT22;63241;51.056;3.698;2023-08-17T15:45:04;27.40;57.70
70076;DHT22;63241;51.056;3.698;2023-08-17T15:47:51;27.20;58.40
70076;DHT22;63241;51.056;3.698;2023-08-17T15:53:35;26.90;59.70
70076;DHT22;63241;51.056;3.698;2023-08-17T15:56:29;26.80;60.20
70076;DHT22;63241;51.056;3.698;2023-08-17T15:59:16;27.10;59.50
70076;DHT22;63241;51.056;3.698;2023-08-17T16:02:02;27.00;59.70
70076;DHT22;63241;51.056;3.698;2023-08-17T16:10:49;27.10;59.10
70076;DHT22;63241;51.056;3.698;2023-08-17T16:13:37;26.70;60.90
70076;DHT22;63241;51.056;3.698;2023-08-17T16:16:23;27.00;60.90
70076;DHT22;63241;51.056;3.698;2023-08-17T16:19:36;27.00;60.10
70076;DHT22;63241;51.056;3.698;2023-08-17T16:22:35;27.20;60.00
70076;DHT22;63241;51.056;3.698;2023-08-17T16:25:21;27.20;59.60
70076;DHT22;63241;51.056;3.698;2023-08-17T16:28:07;26.80;60.40
70076;DHT22;63241;51.056;3.698;2023-08-17T16:30:54;26.50;61.50
70076;DHT22;63241;51.056;3.698;2023-08-17T16:34:04;26.20;62.90
70076;DHT22;63241;51.056;3.698;2023-08-17T16:37:11;26.20;63.30
70076;DHT22;63241;51.056;3.698;2023-08-17T16:39:57;26.30;63.30
70076;DHT22;63241;51.056;3.698;2023-08-17T16:42:44;26.30;63.20
70076;DHT22;63241;51.056;3.698;2023-08-17T16:50:55;26.40;62.90
70076;DHT22;63241;51.056;3.698;2023-08-17T16:53:41;26.00;63.70
70076;DHT22;63241;51.056;3.698;2023-08-17T16:56:29;25.80;64.80
70076;DHT22;63241;51.056;3.698;2023-08-17T16:59:52;25.80;65.10
70076;DHT22;63241;51.056;3.698;2023-08-17T17:02:44;25.40;66.40
70076;DHT22;63241;51.056;3.698;2023-08-17T17:05:30;25.10;67.70
70076;DHT22;63241;51.056;3.698;2023-08-17T17:08:17;25.10;68.00
70076;DHT22;63241;51.056;3.698;2023-08-17T17:11:03;25.00;68.40
70076;DHT22;63241;51.056;3.698;2023-08-17T17:29:49;24.00;72.90
70076;DHT22;63241;51.056;3.698;2023-08-17T17:32:35;24.00;73.70
70076;DHT22;63241;51.056;3.698;2023-08-17T17:35:21;24.10;74.00
70076;DHT22;63241;51.056;3.698;2023-08-17T17:38:08;24.00;73.60
70076;DHT22;63241;51.056;3.698;2023-08-17T17:41:20;23.90;74.00
70076;DHT22;63241;51.056;3.698;2023-08-17T17:44:33;23.80;75.00
70076;DHT22;63241;51.056;3.698;2023-08-17T17:47:20;23.70;75.20
70076;DHT22;63241;51.056;3.698;2023-08-17T17:50:06;23.60;76.20
70076;DHT22;63241;51.056;3.698;2023-08-17T17:52:53;23.40;77.00
70076;DHT22;63241;51.056;3.698;2023-08-17T17:55:39;23.40;77.70
70076;DHT22;63241;51.056;3.698;2023-08-17T17:58:25;23.50;77.40
70076;DHT22;63241;51.056;3.698;2023-08-17T18:01:12;23.50;77.60
70076;DHT22;63241;51.056;3.698;2023-08-17T18:03:59;23.20;78.40
70076;DHT22;63241;51.056;3.698;2023-08-17T18:06:45;23.10;79.50
70076;DHT22;63241;51.056;3.698;2023-08-17T18:09:37;22.90;80.20
70076;DHT22;63241;51.056;3.698;2023-08-17T18:12:25;22.90;81.00
70076;DHT22;63241;51.056;3.698;2023-08-17T18:15:13;22.90;81.20
70076;DHT22;63241;51.056;3.698;2023-08-17T18:18:00;22.80;82.70
70076;DHT22;63241;51.056;3.698;2023-08-17T18:20:46;22.80;82.20
70076;DHT22;63241;51.056;3.698;2023-08-17T18:23:33;22.70;82.80
70076;DHT22;63241;51.056;3.698;2023-08-17T18:26:19;22.60;83.30
70076;DHT22;63241;51.056;3.698;2023-08-17T18:29:06;22.50;84.20
70076;DHT22;63241;51.056;3.698;2023-08-17T18:31:53;22.50;84.90
